sensor_id;sensor_type;location;lat;lon;timestamp;P1;P2;P0
29460;PMS7003;16428;47.836;35.106;2023-01-24T00:00:11;11.50;11.50;10.00
29460;PMS7003;16428;47.836;35.106;2023-01-24T00:02:57;10.50;10.50;9.00
29460;PMS7003;16428;47.836;35.106;2023-01-24T00:05:35;12.25;10.75;7.00
29460;PMS7003;16428;47.836;35.106;2023-01-24T00:08:19;14.25;8.25;6.75
29460;PMS7003;16428;47.836;35.106;2023-01-24T00:11:02;14.25;13.00;8.00
29460;PMS7003;16428;47.836;35.106;2023-01-24T00:13:35;15.25;14.25;10.25
29460;PMS7003;16428;47.836;35.106;2023-01-24T00:19:00;19.00;17.00;11.00
29460;PMS7003;16428;47.836;35.106;2023-01-24T00:21:34;11.50;10.50;7.50
29460;PMS7003;16428;47.836;35.106;2023-01-24T00:24:18;17.50;13.25;10.50
29460;PMS7003;16428;47.836;35.106;2023-01-24T00:26:51;14.75;11.25;9.50
29460;PMS7003;16428;47.836;35.106;2023-01-24T00:29:28;10.25;10.25;9.00
29460;PMS7003;16428;47.836;35.106;2023-01-24T00:32:00;14.00;12.50;8.00
29460;PMS7003;16428;47.836;35.106;2023-01-24T00:34:43;12.00;12.00;7.50
29460;PMS7003;16428;47.836;35.106;2023-01-24T00:37:30;13.75;11.00;9.25
29460;PMS7003;16428;47.836;35.106;2023-01-24T00:40:12;16.00;12.50;10.00
29460;PMS7003;16428;47.836;35.106;2023-01-24T00:42:45;11.00;11.00;9.75
29460;PMS7003;16428;47.836;35.106;2023-01-24T00:45:16;15.75;13.50;9.75
29460;PMS7003;16428;47.836;35.106;2023-01-24T00:47:47;14.00;11.00;7.75
29460;PMS7003;16428;47.836;35.106;2023-01-24T00:50:20;15.75;13.50;10.25
29460;PMS7003;16428;47.836;35.106;2023-01-24T00:52:51;14.00;13.00;10.25
29460;PMS7003;16428;47.836;35.106;2023-01-24T00:55:34;19.25;12.50;10.00
29460;PMS7003;16428;47.836;35.106;2023-01-24T00:58:12;13.50;13.50;10.25
29460;PMS7003;16428;47.836;35.106;2023-01-24T01:00:43;15.00;10.75;9.00
29460;PMS7003;16428;47.836;35.106;2023-01-24T01:03:14;22.00;13.25;9.75
29460;PMS7003;16428;47.836;35.106;2023-01-24T01:05:48;18.25;16.75;11.00
29460;PMS7003;16428;47.836;35.106;2023-01-24T01:08:21;15.00;10.00;7.25
29460;PMS7003;16428;47.836;35.106;2023-01-24T01:10:53;15.25;9.25;8.50
29460;PMS7003;16428;47.836;35.106;2023-01-24T01:13:23;11.25;10.00;9.00
29460;PMS7003;16428;47.836;35.106;2023-01-24T01:16:05;9.75;9.75;7.00
29460;PMS7003;16428;47.836;35.106;2023-01-24T01:18:40;15.25;10.25;7.00
29460;PMS7003;16428;47.836;35.106;2023-01-24T01:21:14;10.50;9.25;6.75
29460;PMS7003;16428;47.836;35.106;2023-01-24T01:23:47;12.00;12.00;9.50
29460;PMS7003;16428;47.836;35.106;2023-01-24T01:26:18;14.00;10.25;8.75
29460;PMS7003;16428;47.836;35.106;2023-01-24T01:28:49;10.75;9.25;7.00
29460;PMS7003;16428;47.836;35.106;2023-01-24T01:31:18;9.75;8.25;5.25
29460;PMS7003;16428;47.836;35.106;2023-01-24T01:33:47;15.25;14.50;10.00
29460;PMS7003;16428;47.836;35.106;2023-01-24T01:36:16;13.25;11.00;8.00
29460;PMS7003;16428;47.836;35.106;2023-01-24T01:38:46;10.50;9.25;7.00
29460;PMS7003;16428;47.836;35.106;2023-01-24T01:41:19;11.50;11.50;9.25
29460;PMS7003;16428;47.836;35.106;2023-01-24T01:43:48;14.25;8.50;7.00
29460;PMS7003;16428;47.836;35.106;2023-01-24T01:46:40;19.25;12.00;8.75
29460;PMS7003;16428;47.836;35.106;2023-01-24T01:49:20;14.50;11.50;7.50
29460;PMS7003;16428;47.836;35.106;2023-01-24T01:51:52;9.00;6.50;5.50
29460;PMS7003;16428;47.836;35.106;2023-01-24T01:54:31;4.50;2.25;1.00
29460;PMS7003;16428;47.836;35.106;2023-01-24T01:57:11;15.00;12.50;9.25
29460;PMS7003;16428;47.836;35.106;2023-01-24T01:59:53;24.75;14.00;10.00
29460;PMS7003;16428;47.836;35.106;2023-01-24T02:02:36;12.00;11.50;9.50
29460;PMS7003;16428;47.836;35.106;2023-01-24T02:07:50;13.75;10.00;7.00
29460;PMS7003;16428;47.836;35.106;2023-01-24T02:10:28;12.00;12.00;10.50
29460;PMS7003;16428;47.836;35.106;2023-01-24T02:13:19;17.25;13.00;8.50
29460;PMS7003;16428;47.836;35.106;2023-01-24T02:15:52;11.75;11.75;10.00
29460;PMS7003;16428;47.836;35.106;2023-01-24T02:18:36;10.00;10.00;7.50
29460;PMS7003;16428;47.836;35.106;2023-01-24T02:21:13;13.25;11.25;8.50
29460;PMS7003;16428;47.836;35.106;2023-01-24T02:23:52;9.75;5.75;4.00
29460;PMS7003;16428;47.836;35.106;2023-01-24T02:26:36;12.50;10.00;7.00
29460;PMS7003;16428;47.836;35.106;2023-01-24T02:29:09;9.00;6.50;5.50
29460;PMS7003;16428;47.836;35.106;2023-01-24T02:31:59;9.00;9.00;7.00
29460;PMS7003;16428;47.836;35.106;2023-01-24T02:34:33;10.75;9.00;7.00
29460;PMS7003;16428;47.836;35.106;2023-01-24T02:37:03;14.50;13.25;10.25
29460;PMS7003;16428;47.836;35.106;2023-01-24T02:39:41;13.00;13.00;8.50
29460;PMS7003;16428;47.836;35.106;2023-01-24T02:42:17;14.50;10.75;9.25
29460;PMS7003;16428;47.836;35.106;2023-01-24T02:45:10;14.25;9.00;7.00
29460;PMS7003;16428;47.836;35.106;2023-01-24T02:47:48;13.75;10.50;6.00
29460;PMS7003;16428;47.836;35.106;2023-01-24T02:50:23;12.75;5.75;4.50
29460;PMS7003;16428;47.836;35.106;2023-01-24T02:52:57;11.00;8.00;6.25
29460;PMS7003;16428;47.836;35.106;2023-01-24T02:55:50;9.25;9.25;7.25
29460;PMS7003;16428;47.836;35.106;2023-01-24T02:58:46;12.00;8.25;6.50
29460;PMS7003;16428;47.836;35.106;2023-01-24T03:01:18;13.50;11.50;9.75
29460;PMS7003;16428;47.836;35.106;2023-01-24T03:03:51;10.00;10.00;9.00
29460;PMS7003;16428;47.836;35.106;2023-01-24T03:06:23;11.75;9.50;8.00
29460;PMS7003;16428;47.836;35.106;2023-01-24T03:08:52;11.25;10.25;9.50
29460;PMS7003;16428;47.836;35.106;2023-01-24T03:11:22;13.25;12.75;9.75
29460;PMS7003;16428;47.836;35.106;2023-01-24T03:13:55;15.25;11.75;9.25
29460;PMS7003;16428;47.836;35.106;2023-01-24T03:16:47;10.25;10.25;6.50
29460;PMS7003;16428;47.836;35.106;2023-01-24T03:19:39;8.50;8.50;5.50
29460;PMS7003;16428;47.836;35.106;2023-01-24T03:22:42;10.25;10.25;7.25
29460;PMS7003;16428;47.836;35.106;2023-01-24T03:25:33;7.50;7.50;6.00
29460;PMS7003;16428;47.836;35.106;2023-01-24T03:28:32;14.00;9.75;6.25
29460;PMS7003;16428;47.836;35.106;2023-01-24T03:31:20;12.75;9.00;8.25
29460;PMS7003;16428;47.836;35.106;2023-01-24T03:34:10;10.00;10.00;7.00
29460;PMS7003;16428;47.836;35.106;2023-01-24T03:37:01;10.50;8.75;6.00
29460;PMS7003;16428;47.836;35.106;2023-01-24T03:39:32;14.00;6.50;6.00
29460;PMS7003;16428;47.836;35.106;2023-01-24T03:42:22;14.00;9.25;7.75
29460;PMS7003;16428;47.836;35.106;2023-01-24T03:45:01;8.50;8.50;6.25
29460;PMS7003;16428;47.836;35.106;2023-01-24T03:47:31;9.50;6.00;5.75
29460;PMS7003;16428;47.836;35.106;2023-01-24T03:50:03;8.00;8.00;6.00
29460;PMS7003;16428;47.836;35.106;2023-01-24T03:52:52;9.75;7.25;5.75
29460;PMS7003;16428;47.836;35.106;2023-01-24T03:55:30;13.50;10.25;7.00
29460;PMS7003;16428;47.836;35.106;2023-01-24T03:58:05;8.00;8.00;6.50
29460;PMS7003;16428;47.836;35.106;2023-01-24T04:00:41;5.50;5.50;5.00
29460;PMS7003;16428;47.836;35.106;2023-01-24T04:03:11;12.00;12.00;6.75
29460;PMS7003;16428;47.836;35.106;2023-01-24T04:05:40;14.00;11.25;9.00
29460;PMS7003;16428;47.836;35.106;2023-01-24T04:08:11;9.00;9.00;8.00
29460;PMS7003;16428;47.836;35.106;2023-01-24T04:10:41;17.25;11.00;7.00
29460;PMS7003;16428;47.836;35.106;2023-01-24T04:13:11;1.25;1.25;1.00
29460;PMS7003;16428;47.836;35.106;2023-01-24T04:15:41;10.00;6.75;6.00
29460;PMS7003;16428;47.836;35.106;2023-01-24T04:18:10;15.25;12.50;8.50
29460;PMS7003;16428;47.836;35.106;2023-01-24T04:20:41;16.50;9.50;8.75
29460;PMS7003;16428;47.836;35.106;2023-01-24T04:23:10;6.25;6.25;5.00
29460;PMS7003;16428;47.836;35.106;2023-01-24T04:25:41;11.50;9.75;6.25
29460;PMS7003;16428;47.836;35.106;2023-01-24T04:28:11;13.25;10.00;7.50
29460;PMS7003;16428;47.836;35.106;2023-01-24T04:30:40;13.50;13.50;10.25
29460;PMS7003;16428;47.836;35.106;2023-01-24T04:33:12;18.00;14.00;9.50
29460;PMS7003;16428;47.836;35.106;2023-01-24T04:35:42;15.50;12.75;9.00
29460;PMS7003;16428;47.836;35.106;2023-01-24T04:38:21;11.00;9.00;7.00
29460;PMS7003;16428;47.836;35.106;2023-01-24T04:40:59;22.50;14.25;11.50
29460;PMS7003;16428;47.836;35.106;2023-01-24T04:43:28;12.75;9.00;6.50
29460;PMS7003;16428;47.836;35.106;2023-01-24T04:45:57;16.25;11.00;8.00
29460;PMS7003;16428;47.836;35.106;2023-01-24T04:48:27;12.50;9.25;7.00
29460;PMS7003;16428;47.836;35.106;2023-01-24T04:50:59;16.75;12.25;9.25
29460;PMS7003;16428;47.836;35.106;2023-01-24T04:53:33;11.00;11.00;7.00
29460;PMS7003;16428;47.836;35.106;2023-01-24T04:56:05;20.75;18.25;11.00
29460;PMS7003;16428;47.836;35.106;2023-01-24T04:58:35;14.50;12.25;9.25
29460;PMS7003;16428;47.836;35.106;2023-01-24T05:01:05;11.50;8.50;7.00
29460;PMS7003;16428;47.836;35.106;2023-01-24T05:03:35;17.25;15.00;12.75
29460;PMS7003;16428;47.836;35.106;2023-01-24T05:06:10;15.25;11.25;8.50
29460;PMS7003;16428;47.836;35.106;2023-01-24T05:08:40;18.75;15.50;9.50
29460;PMS7003;16428;47.836;35.106;2023-01-24T05:11:26;12.25;8.75;7.00
29460;PMS7003;16428;47.836;35.106;2023-01-24T05:13:57;16.50;12.00;8.25
29460;PMS7003;16428;47.836;35.106;2023-01-24T05:16:43;10.75;7.25;4.00
29460;PMS7003;16428;47.836;35.106;2023-01-24T05:19:13;6.25;4.50;2.25
29460;PMS7003;16428;47.836;35.106;2023-01-24T05:22:09;15.50;10.00;9.00
29460;PMS7003;16428;47.836;35.106;2023-01-24T05:25:06;16.50;13.00;12.75
29460;PMS7003;16428;47.836;35.106;2023-01-24T05:27:52;17.50;11.50;10.25
29460;PMS7003;16428;47.836;35.106;2023-01-24T05:30:23;8.00;8.00;6.00
29460;PMS7003;16428;47.836;35.106;2023-01-24T05:33:13;11.75;10.25;8.25
29460;PMS7003;16428;47.836;35.106;2023-01-24T05:35:46;62.00;53.33;36.00
29460;PMS7003;16428;47.836;35.106;2023-01-24T05:38:44;9.00;6.00;3.00
29460;PMS7003;16428;47.836;35.106;2023-01-24T05:41:38;13.00;10.00;8.75
29460;PMS7003;16428;47.836;35.106;2023-01-24T05:44:12;12.50;9.00;6.00
29460;PMS7003;16428;47.836;35.106;2023-01-24T05:46:43;12.00;9.50;7.00
29460;PMS7003;16428;47.836;35.106;2023-01-24T05:49:29;14.25;10.00;9.75
29460;PMS7003;16428;47.836;35.106;2023-01-24T05:52:06;27.25;13.25;8.25
29460;PMS7003;16428;47.836;35.106;2023-01-24T05:54:42;19.50;14.50;11.75
29460;PMS7003;16428;47.836;35.106;2023-01-24T05:57:14;16.00;9.00;6.00
29460;PMS7003;16428;47.836;35.106;2023-01-24T05:59:58;17.75;13.75;9.00
29460;PMS7003;16428;47.836;35.106;2023-01-24T06:02:30;9.00;8.75;6.00
29460;PMS7003;16428;47.836;35.106;2023-01-24T06:04:59;12.75;11.00;9.25
29460;PMS7003;16428;47.836;35.106;2023-01-24T06:07:32;16.00;16.00;12.25
29460;PMS7003;16428;47.836;35.106;2023-01-24T06:10:02;15.75;12.50;8.25
29460;PMS7003;16428;47.836;35.106;2023-01-24T06:12:33;13.00;12.50;9.75
29460;PMS7003;16428;47.836;35.106;2023-01-24T06:15:06;20.50;11.75;8.00
29460;PMS7003;16428;47.836;35.106;2023-01-24T06:17:44;22.50;11.75;9.75
29460;PMS7003;16428;47.836;35.106;2023-01-24T06:20:19;13.25;13.25;11.75
29460;PMS7003;16428;47.836;35.106;2023-01-24T06:23:04;8.00;8.00;6.50
29460;PMS7003;16428;47.836;35.106;2023-01-24T06:25:37;17.00;10.00;9.00
29460;PMS7003;16428;47.836;35.106;2023-01-24T06:28:07;27.50;18.50;13.50
29460;PMS7003;16428;47.836;35.106;2023-01-24T06:30:38;14.50;9.00;6.00
29460;PMS7003;16428;47.836;35.106;2023-01-24T06:33:32;13.75;10.50;8.25
29460;PMS7003;16428;47.836;35.106;2023-01-24T10:34:00;45.50;36.25;26.00
29460;PMS7003;16428;47.836;35.106;2023-01-24T11:14:35;30.50;26.00;20.50
29460;PMS7003;16428;47.836;35.106;2023-01-24T11:17:33;33.67;20.00;13.67
29460;PMS7003;16428;47.836;35.106;2023-01-24T18:27:28;43.75;35.00;23.75
29460;PMS7003;16428;47.836;35.106;2023-01-24T18:29:57;29.00;20.50;13.75
29460;PMS7003;16428;47.836;35.106;2023-01-24T18:32:26;29.25;25.50;18.50
29460;PMS7003;16428;47.836;35.106;2023-01-24T18:34:59;30.75;26.75;16.00
29460;PMS7003;16428;47.836;35.106;2023-01-24T18:37:28;42.00;27.75;21.50
29460;PMS7003;16428;47.836;35.106;2023-01-24T18:39:56;26.75;19.00;10.50
29460;PMS7003;16428;47.836;35.106;2023-01-24T18:42:26;35.75;29.50;20.50
29460;PMS7003;16428;47.836;35.106;2023-01-24T18:45:00;30.00;20.50;14.50
29460;PMS7003;16428;47.836;35.106;2023-01-24T18:47:29;40.50;30.00;22.50
29460;PMS7003;16428;47.836;35.106;2023-01-24T18:49:59;29.75;29.50;23.00
29460;PMS7003;16428;47.836;35.106;2023-01-24T18:52:29;45.33;38.67;28.00
29460;PMS7003;16428;47.836;35.106;2023-01-24T18:54:57;35.50;32.00;23.00
29460;PMS7003;16428;47.836;35.106;2023-01-24T18:57:25;40.00;37.75;26.25
29460;PMS7003;16428;47.836;35.106;2023-01-24T18:59:59;55.00;40.67;27.00
29460;PMS7003;16428;47.836;35.106;2023-01-24T19:02:30;46.33;40.33;28.67
29460;PMS7003;16428;47.836;35.106;2023-01-24T19:05:00;56.50;44.00;29.00
29460;PMS7003;16428;47.836;35.106;2023-01-24T19:07:32;46.75;37.50;26.25
29460;PMS7003;16428;47.836;35.106;2023-01-24T19:10:10;40.00;39.75;26.00
29460;PMS7003;16428;47.836;35.106;2023-01-24T19:13:03;49.75;36.75;24.50
29460;PMS7003;16428;47.836;35.106;2023-01-24T19:15:58;40.25;37.50;26.50
29460;PMS7003;16428;47.836;35.106;2023-01-24T19:18:31;37.00;31.25;24.00
29460;PMS7003;16428;47.836;35.106;2023-01-24T19:21:09;42.67;37.67;25.33
29460;PMS7003;16428;47.836;35.106;2023-01-24T19:23:42;38.33;35.33;20.00
29460;PMS7003;16428;47.836;35.106;2023-01-24T19:26:17;26.25;23.50;16.50
29460;PMS7003;16428;47.836;35.106;2023-01-24T19:32:50;40.75;32.50;23.50
29460;PMS7003;16428;47.836;35.106;2023-01-24T19:39:39;23.00;21.25;15.00
29460;PMS7003;16428;47.836;35.106;2023-01-24T19:54:10;21.25;17.25;14.50
29460;PMS7003;16428;47.836;35.106;2023-01-24T19:57:07;29.25;25.75;19.25
29460;PMS7003;16428;47.836;35.106;2023-01-24T20:05:56;30.00;22.25;14.75
29460;PMS7003;16428;47.836;35.106;2023-01-24T20:08:56;29.75;20.50;13.75
29460;PMS7003;16428;47.836;35.106;2023-01-24T20:11:59;33.00;24.00;18.25
29460;PMS7003;16428;47.836;35.106;2023-01-24T20:30:01;20.00;20.00;17.50
29460;PMS7003;16428;47.836;35.106;2023-01-24T20:32:47;29.75;29.75;22.50
29460;PMS7003;16428;47.836;35.106;2023-01-24T20:35:56;29.25;21.50;15.50
29460;PMS7003;16428;47.836;35.106;2023-01-24T20:38:53;28.50;23.00;18.00
29460;PMS7003;16428;47.836;35.106;2023-01-24T20:41:42;28.50;28.50;20.00
29460;PMS7003;16428;47.836;35.106;2023-01-24T20:44:31;41.25;33.00;26.00
29460;PMS7003;16428;47.836;35.106;2023-01-24T20:47:33;42.00;34.75;24.25
29460;PMS7003;16428;47.836;35.106;2023-01-24T20:50:36;41.75;34.75;24.00
29460;PMS7003;16428;47.836;35.106;2023-01-24T20:53:32;37.50;30.25;24.50
29460;PMS7003;16428;47.836;35.106;2023-01-24T20:56:43;42.50;29.50;24.25
29460;PMS7003;16428;47.836;35.106;2023-01-24T20:59:49;29.33;29.33;19.33
29460;PMS7003;16428;47.836;35.106;2023-01-24T21:02:50;38.50;35.00;26.00
29460;PMS7003;16428;47.836;35.106;2023-01-24T21:09:12;36.67;32.00;21.67
29460;PMS7003;16428;47.836;35.106;2023-01-24T21:12:19;45.50;34.75;24.00
29460;PMS7003;16428;47.836;35.106;2023-01-24T21:18:26;37.33;36.00;26.33
29460;PMS7003;16428;47.836;35.106;2023-01-24T21:21:24;50.00;41.67;28.67
29460;PMS7003;16428;47.836;35.106;2023-01-24T21:24:14;42.50;39.00;25.00
29460;PMS7003;16428;47.836;35.106;2023-01-24T21:27:17;42.75;34.00;21.25
29460;PMS7003;16428;47.836;35.106;2023-01-24T21:29:51;43.33;34.67;23.67
29460;PMS7003;16428;47.836;35.106;2023-01-24T21:32:35;52.00;39.00;26.67
29460;PMS7003;16428;47.836;35.106;2023-01-24T21:35:37;58.00;41.33;24.33
29460;PMS7003;16428;47.836;35.106;2023-01-24T21:38:32;48.00;37.33;26.33
29460;PMS7003;16428;47.836;35.106;2023-01-24T21:41:29;44.33;36.33;26.67
29460;PMS7003;16428;47.836;35.106;2023-01-24T21:47:28;35.67;27.33;14.00
29460;PMS7003;16428;47.836;35.106;2023-01-24T21:50:29;44.67;35.33;26.67
29460;PMS7003;16428;47.836;35.106;2023-01-24T21:53:25;35.33;34.67;24.67
29460;PMS7003;16428;47.836;35.106;2023-01-24T21:56:24;42.33;32.67;26.33
29460;PMS7003;16428;47.836;35.106;2023-01-24T21:59:13;38.00;35.67;23.33
29460;PMS7003;16428;47.836;35.106;2023-01-24T22:01:51;51.33;42.00;28.00
29460;PMS7003;16428;47.836;35.106;2023-01-24T22:04:25;38.00;34.67;21.00
29460;PMS7003;16428;47.836;35.106;2023-01-24T22:07:30;45.67;42.67;27.33
29460;PMS7003;16428;47.836;35.106;2023-01-24T22:10:26;38.67;38.33;28.33
29460;PMS7003;16428;47.836;35.106;2023-01-24T22:13:30;40.00;35.67;27.33
29460;PMS7003;16428;47.836;35.106;2023-01-24T22:16:31;59.00;49.00;32.00
29460;PMS7003;16428;47.836;35.106;2023-01-24T22:23:02;60.67;46.67;31.00
29460;PMS7003;16428;47.836;35.106;2023-01-24T22:26:20;62.33;47.33;34.00
29460;PMS7003;16428;47.836;35.106;2023-01-24T22:29:26;48.33;43.67;30.67
29460;PMS7003;16428;47.836;35.106;2023-01-24T22:32:23;55.67;44.33;28.00
29460;PMS7003;16428;47.836;35.106;2023-01-24T22:34:53;60.67;47.67;31.67
29460;PMS7003;16428;47.836;35.106;2023-01-24T22:42:48;55.33;46.00;31.67
29460;PMS7003;16428;47.836;35.106;2023-01-24T22:45:42;58.00;50.33;33.67
29460;PMS7003;16428;47.836;35.106;2023-01-24T22:48:17;53.00;45.67;29.67
29460;PMS7003;16428;47.836;35.106;2023-01-24T22:51:00;52.00;42.67;29.33
29460;PMS7003;16428;47.836;35.106;2023-01-24T22:53:30;58.67;44.00;31.00
29460;PMS7003;16428;47.836;35.106;2023-01-24T22:56:01;56.67;44.33;30.00
29460;PMS7003;16428;47.836;35.106;2023-01-24T22:58:34;58.67;45.00;29.67
29460;PMS7003;16428;47.836;35.106;2023-01-24T23:01:03;46.67;42.33;28.67
29460;PMS7003;16428;47.836;35.106;2023-01-24T23:03:34;57.00;42.67;29.00
29460;PMS7003;16428;47.836;35.106;2023-01-24T23:06:06;38.33;23.67;16.67
29460;PMS7003;16428;47.836;35.106;2023-01-24T23:08:38;47.00;36.67;27.00
29460;PMS7003;16428;47.836;35.106;2023-01-24T23:11:07;44.33;38.00;27.33
29460;PMS7003;16428;47.836;35.106;2023-01-24T23:13:48;40.00;37.00;24.00
29460;PMS7003;16428;47.836;35.106;2023-01-24T23:19:46;44.67;40.00;29.00
29460;PMS7003;16428;47.836;35.106;2023-01-24T23:22:36;39.00;32.33;22.67
29460;PMS7003;16428;47.836;35.106;2023-01-24T23:25:05;45.00;36.00;26.33
29460;PMS7003;16428;47.836;35.106;2023-01-24T23:27:39;48.33;42.00;28.67
29460;PMS7003;16428;47.836;35.106;2023-01-24T23:33:01;39.67;31.00;20.67
29460;PMS7003;16428;47.836;35.106;2023-01-24T23:35:33;40.00;32.67;25.67
29460;PMS7003;16428;47.836;35.106;2023-01-24T23:38:02;46.33;35.67;26.67
29460;PMS7003;16428;47.836;35.106;2023-01-24T23:40:31;44.33;34.67;27.00
29460;PMS7003;16428;47.836;35.106;2023-01-24T23:43:03;40.67;35.33;25.67
29460;PMS7003;16428;47.836;35.106;2023-01-24T23:45:31;37.67;26.67;20.33
29460;PMS7003;16428;47.836;35.106;2023-01-24T23:48:00;51.00;43.67;27.00
29460;PMS7003;16428;47.836;35.106;2023-01-24T23:50:30;39.33;32.33;21.33
29460;PMS7003;16428;47.836;35.106;2023-01-24T23:52:59;41.00;34.67;23.33
29460;PMS7003;16428;47.836;35.106;2023-01-24T23:55:29;42.67;37.67;26.67
29460;PMS7003;16428;47.836;35.106;2023-01-24T23:58:02;50.67;37.33;27.00
